Time;durP1;ratioP1;P1;durP2;ratioP2;P2;SDS_P1;SDS_P2;PMS_P1;PMS_P2;Temp;Humidity;BMP_temperature;BMP_pressure;BME280_temperature;BME280_humidity;BME280_pressure;Samples;Min_cycle;Max_cycle;Signal;HPM_P1;HPM_P2
2023/02/16 07:34:51;;;;;;;2.23;2.03;;;20.90;56.40;;;;;;6254731;22;20467;-94
2023/02/16 07:37:18;;;;;;;2.80;2.60;;;20.90;56.50;;;;;;6254105;22;20540;-96
2023/02/16 07:39:45;;;;;;;2.13;1.93;;;20.90;57.20;;;;;;6257562;23;20731;-96
2023/02/16 07:42:12;;;;;;;2.37;2.27;;;21.00;56.70;;;;;;6253220;23;20397;-91
2023/02/16 07:44:39;;;;;;;2.03;1.93;;;20.90;56.40;;;;;;6250414;23;20504;-93
2023/02/16 07:47:06;;;;;;;2.80;2.60;;;20.90;56.50;;;;;;6246273;23;20871;-93
2023/02/16 07:49:34;;;;;;;2.80;2.30;;;20.90;56.50;;;;;;6246197;23;20398;-93
2023/02/16 07:52:02;;;;;;;2.70;2.50;;;20.90;56.10;;;;;;6249696;23;20429;-93
2023/02/16 07:54:31;;;;;;;2.27;2.17;;;21.00;56.10;;;;;;6248442;23;20423;-96
2023/02/16 07:56:58;;;;;;;2.10;2.00;;;21.00;56.20;;;;;;6248364;23;20451;-88
2023/02/16 07:59:25;;;;;;;2.47;2.27;;;21.20;56.50;;;;;;6247111;23;20507;-94
2023/02/16 08:02:03;;;;;;;2.00;1.90;;;20.90;56.30;;;;;;6255233;23;20429;-95
2023/02/16 08:04:30;;;;;;;2.83;2.50;;;20.90;56.40;;;;;;6251887;23;20432;-85
2023/02/16 08:06:57;;;;;;;2.33;2.13;;;20.90;56.20;;;;;;6246052;23;20399;-92
2023/02/16 08:09:25;;;;;;;2.33;2.13;;;20.90;56.30;;;;;;6247903;23;20401;-96
2023/02/16 08:11:52;;;;;;;2.80;2.60;;;21.00;56.50;;;;;;6256567;22;20416;-93
2023/02/16 08:15:07;;;;;;;2.67;2.47;;;20.90;56.40;;;;;;6263029;22;20472;-96
2023/02/16 08:17:34;;;;;;;2.30;2.10;;;21.00;56.50;;;;;;6258672;23;20484;-96
2023/02/16 08:20:01;;;;;;;4.13;2.20;;;21.00;56.90;;;;;;6258834;23;20488;-95
2023/02/16 08:22:29;;;;;;;4.67;2.67;;;21.10;57.00;;;;;;6257478;22;20400;-96
2023/02/16 08:24:58;;;;;;;4.07;2.13;;;21.00;57.00;;;;;;6250072;23;20420;-93
2023/02/16 08:27:25;;;;;;;2.30;1.97;;;21.00;56.90;;;;;;6246333;23;20439;-94
2023/02/16 08:29:52;;;;;;;3.00;2.20;;;21.00;57.00;;;;;;6252404;23;20396;-96
2023/02/16 08:32:25;;;;;;;2.93;2.67;;;21.00;57.10;;;;;;6254294;22;20421;-92
2023/02/16 08:34:52;;;;;;;2.50;2.30;;;21.00;57.00;;;;;;6224771;23;20432;-94
2023/02/16 08:37:19;;;;;;;2.57;2.37;;;21.10;57.30;;;;;;6255138;22;20453;-93
2023/02/16 08:39:48;;;;;;;2.53;2.30;;;21.10;57.20;;;;;;6257671;23;20440;-96
2023/02/16 08:42:17;;;;;;;6.80;2.67;;;21.10;57.10;;;;;;6256963;22;20472;-95
2023/02/16 08:44:44;;;;;;;6.70;2.77;;;21.10;57.10;;;;;;6256128;22;20441;-94
2023/02/16 08:50:45;;;;;;;3.47;3.17;;;21.10;57.10;;;;;;6188843;23;20398;-91
2023/02/16 08:53:13;;;;;;;2.87;2.67;;;21.10;56.70;;;;;;6196603;23;20403;-90
2023/02/16 08:55:39;;;;;;;2.37;2.17;;;21.10;55.90;;;;;;6189175;23;20490;-90
2023/02/16 08:58:08;;;;;;;2.83;2.63;;;21.10;56.80;;;;;;6187787;23;20895;-96
2023/02/16 09:00:34;;;;;;;3.00;2.70;;;21.10;57.00;;;;;;6185653;23;20495;-92
2023/02/16 09:03:03;;;;;;;3.30;2.67;;;21.10;57.00;;;;;;6186362;23;20410;-88
2023/02/16 09:05:30;;;;;;;5.77;3.17;;;21.20;56.80;;;;;;6186262;23;20403;-89
2023/02/16 09:07:57;;;;;;;3.07;2.87;;;21.20;56.60;;;;;;6212698;23;20463;-90
2023/02/16 09:10:24;;;;;;;3.17;2.97;;;21.20;56.60;;;;;;6247808;23;20413;-90
2023/02/16 09:12:54;;;;;;;2.60;2.40;;;21.20;56.90;;;;;;6251190;23;20382;-90
2023/02/16 09:15:22;;;;;;;2.50;2.30;;;21.30;56.90;;;;;;6249815;23;20907;-90
2023/02/16 09:17:49;;;;;;;3.10;2.80;;;21.30;56.90;;;;;;6250374;23;20961;-90
2023/02/16 09:20:16;;;;;;;3.17;2.97;;;21.30;56.70;;;;;;6249222;23;20452;-90
2023/02/16 09:22:45;;;;;;;3.17;2.97;;;21.30;56.70;;;;;;6249908;23;20397;-91
2023/02/16 09:25:12;;;;;;;3.20;2.90;;;21.40;56.80;;;;;;6249615;23;20409;-90
2023/02/16 09:27:39;;;;;;;6.17;2.87;;;21.60;56.70;;;;;;6249938;22;20519;-91
2023/02/16 09:30:08;;;;;;;2.73;2.40;;;21.60;56.40;;;;;;6249220;23;20912;-88
2023/02/16 09:32:36;;;;;;;4.80;2.67;;;21.90;56.20;;;;;;6250753;23;20393;-88
2023/02/16 09:35:04;;;;;;;5.03;3.23;;;22.00;56.00;;;;;;6251443;23;20441;-88
2023/02/16 09:37:32;;;;;;;2.63;2.43;;;22.10;55.90;;;;;;6250386;23;20480;-88
2023/02/16 09:39:59;;;;;;;3.07;2.13;;;22.10;55.80;;;;;;6248056;23;20508;-88
2023/02/16 09:42:34;;;;;;;3.27;2.93;;;22.20;55.90;;;;;;6249058;23;20799;-88
2023/02/16 09:45:08;;;;;;;4.00;2.90;;;22.20;55.80;;;;;;6252166;23;20389;-88
2023/02/16 09:47:39;;;;;;;2.87;2.57;;;22.20;55.70;;;;;;6251127;23;20400;-88
2023/02/16 09:50:14;;;;;;;2.90;2.70;;;22.10;55.60;;;;;;6251482;23;20411;-88
2023/02/16 09:52:47;;;;;;;3.10;2.90;;;22.20;55.70;;;;;;6249490;23;20495;-91
2023/02/16 09:55:16;;;;;;;2.97;2.43;;;22.00;55.70;;;;;;6250583;23;20389;-91
2023/02/16 09:57:55;;;;;;;4.00;3.10;;;22.00;55.80;;;;;;6255766;22;20457;-87
2023/02/16 10:00:36;;;;;;;2.67;2.47;;;21.90;55.80;;;;;;6252965;23;20400;-91
2023/02/16 10:03:14;;;;;;;3.03;2.60;;;21.90;55.90;;;;;;6248457;23;20393;-91
2023/02/16 10:05:46;;;;;;;2.47;2.30;;;21.80;55.80;;;;;;6248588;23;20732;-96
2023/02/16 10:08:15;;;;;;;3.40;2.40;;;21.70;55.70;;;;;;6249493;23;20385;-93
2023/02/16 10:10:48;;;;;;;2.37;2.17;;;21.70;55.90;;;;;;6248840;23;20397;-92
2023/02/16 10:13:23;;;;;;;2.30;2.10;;;21.70;55.90;;;;;;6247893;23;20382;-96
2023/02/16 10:15:52;;;;;;;2.77;2.50;;;21.70;55.80;;;;;;6246907;22;20452;-90
2023/02/16 10:18:28;;;;;;;2.83;2.63;;;21.60;55.80;;;;;;6247139;23;20512;-92
2023/02/16 10:20:58;;;;;;;2.83;2.50;;;21.60;55.60;;;;;;6247740;23;20880;-90
2023/02/16 10:23:44;;;;;;;2.50;2.30;;;21.60;55.70;;;;;;6248445;23;20480;-91
2023/02/16 10:26:21;;;;;;;5.33;2.63;;;21.60;56.40;;;;;;6246951;23;20453;-90
2023/02/16 10:28:49;;;;;;;2.80;2.37;;;21.50;56.00;;;;;;6248510;23;20752;-90
2023/02/16 10:31:23;;;;;;;2.90;2.40;;;21.50;56.00;;;;;;6248337;23;20946;-90
2023/02/16 10:34:05;;;;;;;2.60;2.37;;;21.50;56.00;;;;;;6248238;23;20433;-96
2023/02/16 10:36:48;;;;;;;4.53;2.83;;;21.50;56.10;;;;;;6248956;23;20517;-96
2023/02/16 10:39:24;;;;;;;3.00;2.37;;;21.50;56.10;;;;;;6250969;23;20394;-90
2023/02/16 10:41:58;;;;;;;6.50;2.90;;;21.40;56.00;;;;;;6252514;23;20452;-90
2023/02/16 10:44:30;;;;;;;2.97;2.67;;;21.40;55.90;;;;;;6250191;23;20521;-90
2023/02/16 10:47:02;;;;;;;2.50;2.30;;;21.40;55.90;;;;;;6251469;23;20396;-90
2023/02/16 10:49:32;;;;;;;3.03;2.80;;;21.40;56.00;;;;;;6250446;23;20883;-90
2023/02/16 10:52:01;;;;;;;3.87;2.83;;;21.40;56.10;;;;;;6249061;23;20456;-90
2023/02/16 10:54:30;;;;;;;2.83;2.63;;;21.40;56.10;;;;;;6249260;23;20388;-90
2023/02/16 10:57:00;;;;;;;4.47;3.17;;;21.40;56.10;;;;;;6250720;23;20477;-90
2023/02/16 10:59:33;;;;;;;3.07;2.87;;;21.40;56.10;;;;;;6250870;23;20401;-90
2023/02/16 11:02:03;;;;;;;2.70;2.50;;;21.40;56.10;;;;;;6251700;23;20407;-96
2023/02/16 11:04:37;;;;;;;2.87;2.63;;;21.40;56.10;;;;;;6251915;23;20425;-90
2023/02/16 11:07:07;;;;;;;2.10;1.93;;;21.40;56.10;;;;;;6249205;23;20399;-90
2023/02/16 11:09:34;;;;;;;2.40;2.30;;;21.40;56.10;;;;;;6249906;23;20724;-90
2023/02/16 11:12:02;;;;;;;2.67;2.47;;;21.50;56.10;;;;;;6249374;23;20422;-91
2023/02/16 11:14:30;;;;;;;3.07;2.87;;;21.40;56.10;;;;;;6248318;23;20432;-90
2023/02/16 11:17:07;;;;;;;2.80;2.60;;;21.40;56.10;;;;;;6250493;23;21018;-90
2023/02/16 11:19:36;;;;;;;3.57;2.40;;;21.40;56.20;;;;;;6249199;23;20399;-89
2023/02/16 11:22:03;;;;;;;2.43;2.23;;;21.40;56.20;;;;;;6250803;23;20483;-96
2023/02/16 11:24:32;;;;;;;2.50;2.30;;;21.40;56.20;;;;;;6249020;23;20942;-93
2023/02/16 11:27:02;;;;;;;2.47;2.27;;;21.40;56.20;;;;;;6249521;23;20486;-90
2023/02/16 11:29:29;;;;;;;2.90;2.70;;;21.40;56.20;;;;;;6250936;23;20401;-91
2023/02/16 11:31:57;;;;;;;2.60;2.40;;;21.50;56.30;;;;;;6250382;23;20402;-90
2023/02/16 11:34:32;;;;;;;3.10;2.80;;;21.50;56.20;;;;;;6250639;23;20479;-90
2023/02/16 11:37:20;;;;;;;2.53;2.33;;;21.50;56.20;;;;;;6249354;23;20429;-90
2023/02/16 11:39:52;;;;;;;2.40;2.20;;;21.50;56.10;;;;;;6248085;23;20390;-92
2023/02/16 11:42:27;;;;;;;2.47;2.27;;;21.50;56.10;;;;;;6248649;23;20397;-90
2023/02/16 11:44:57;;;;;;;2.37;2.17;;;21.50;56.20;;;;;;6249454;23;20923;-90
2023/02/16 11:47:27;;;;;;;2.30;2.10;;;21.50;56.20;;;;;;6248042;23;20400;-90
2023/02/16 11:50:17;;;;;;;2.30;2.10;;;21.60;56.20;;;;;;6247923;23;20396;-90
2023/02/16 11:52:48;;;;;;;3.00;2.47;;;21.50;56.20;;;;;;6249313;23;20401;-93
2023/02/16 11:55:21;;;;;;;3.10;2.40;;;21.50;56.20;;;;;;6247660;23;20401;-91
2023/02/16 11:57:49;;;;;;;3.23;2.90;;;21.50;55.80;;;;;;6250165;23;20940;-90
2023/02/16 12:00:20;;;;;;;2.43;2.23;;;21.50;56.20;;;;;;6246027;23;20405;-90
2023/02/16 12:03:20;;;;;;;3.03;2.20;;;21.40;56.00;;;;;;6245604;23;20425;-93
2023/02/16 12:06:01;;;;;;;2.93;2.73;;;21.40;56.10;;;;;;6240243;23;20413;-89
2023/02/16 12:08:42;;;;;;;2.73;2.53;;;21.40;56.20;;;;;;6246255;23;20472;-88
2023/02/16 12:11:18;;;;;;;2.73;2.50;;;21.60;56.30;;;;;;6247750;23;20410;-88
2023/02/16 12:13:51;;;;;;;1.87;1.77;;;21.40;55.90;;;;;;6246204;23;20398;-88
2023/02/16 12:16:30;;;;;;;2.50;2.30;;;21.40;56.20;;;;;;6245592;23;20436;-90
2023/02/16 12:19:11;;;;;;;2.60;2.40;;;21.40;56.20;;;;;;6246292;23;20437;-89
2023/02/16 12:21:44;;;;;;;2.63;2.43;;;21.40;56.10;;;;;;6248491;23;20393;-89
2023/02/16 12:24:27;;;;;;;3.20;2.77;;;21.40;56.30;;;;;;6247676;23;20396;-89
2023/02/16 12:26:58;;;;;;;2.47;2.27;;;21.40;56.30;;;;;;6247977;23;20398;-93
2023/02/16 12:29:40;;;;;;;6.67;3.00;;;21.30;56.50;;;;;;6247653;23;20388;-89
2023/02/16 12:32:31;;;;;;;7.20;2.27;;;21.50;56.70;;;;;;6248097;23;20484;-90
2023/02/16 12:35:14;;;;;;;2.90;2.60;;;21.40;56.80;;;;;;6247932;23;20425;-89
2023/02/16 12:37:46;;;;;;;2.07;1.97;;;21.40;56.90;;;;;;6247986;23;20437;-90
2023/02/16 12:40:23;;;;;;;2.70;2.50;;;21.30;56.90;;;;;;6248014;23;20448;-88
2023/02/16 12:43:02;;;;;;;3.47;2.40;;;21.30;57.00;;;;;;6249062;23;20397;-89
2023/02/16 12:45:35;;;;;;;2.60;2.40;;;21.30;57.00;;;;;;6249127;23;20397;-94
2023/02/16 12:48:17;;;;;;;3.83;2.30;;;21.30;57.00;;;;;;6250035;23;20385;-96
2023/02/16 12:50:46;;;;;;;2.73;2.20;;;21.30;57.00;;;;;;6248543;23;20911;-90
2023/02/16 12:53:25;;;;;;;2.00;1.90;;;21.30;57.00;;;;;;6247190;23;20405;-89
2023/02/16 12:55:58;;;;;;;4.40;2.43;;;21.30;57.00;;;;;;6250472;23;20448;-96
2023/02/16 12:58:29;;;;;;;2.93;2.40;;;21.40;56.90;;;;;;6247859;23;20435;-89
2023/02/16 13:00:59;;;;;;;2.47;2.27;;;21.40;57.00;;;;;;6250272;23;20403;-90
2023/02/16 13:03:33;;;;;;;3.60;2.90;;;21.30;56.80;;;;;;6221808;23;20810;-93
2023/02/16 13:06:19;;;;;;;2.80;2.60;;;21.30;56.80;;;;;;6248326;23;20405;-89
2023/02/16 13:08:51;;;;;;;3.10;2.37;;;21.40;56.90;;;;;;6248346;23;20390;-90
2023/02/16 13:11:23;;;;;;;2.73;2.30;;;21.30;56.80;;;;;;6248805;23;20398;-90
2023/02/16 13:13:52;;;;;;;2.60;2.40;;;21.30;57.40;;;;;;6247338;23;20411;-90
2023/02/16 13:16:26;;;;;;;3.87;1.90;;;21.30;56.80;;;;;;6249036;23;20502;-93
2023/02/16 13:18:55;;;;;;;8.10;2.53;;;21.30;56.70;;;;;;6250027;23;20437;-90
2023/02/16 13:21:38;;;;;;;2.73;2.53;;;21.30;56.80;;;;;;6249245;23;20402;-89
2023/02/16 13:24:12;;;;;;;2.93;2.60;;;21.30;56.70;;;;;;6247913;23;20400;-91
2023/02/16 13:27:07;;;;;;;3.53;2.47;;;21.30;56.70;;;;;;6251456;23;20389;-90
2023/02/16 13:29:52;;;;;;;2.30;2.20;;;21.30;56.70;;;;;;6249651;23;20477;-93
2023/02/16 13:32:48;;;;;;;2.40;2.20;;;21.30;56.70;;;;;;6250019;23;20440;-90
2023/02/16 13:35:46;;;;;;;3.30;2.13;;;21.30;56.70;;;;;;6249098;23;20439;-90
2023/02/16 13:38:36;;;;;;;6.27;2.37;;;21.50;56.90;;;;;;6245918;23;20528;-96
2023/02/16 13:41:34;;;;;;;2.23;2.03;;;21.30;56.70;;;;;;6251493;23;20435;-96
2023/02/16 13:44:07;;;;;;;2.60;2.40;;;21.30;56.70;;;;;;6208306;23;20885;-96
2023/02/16 13:46:38;;;;;;;3.33;2.40;;;21.30;56.70;;;;;;6250124;23;20398;-96
2023/02/16 13:49:05;;;;;;;2.70;2.20;;;21.30;56.70;;;;;;6252340;23;20485;-93
2023/02/16 13:51:42;;;;;;;3.90;2.50;;;21.30;56.70;;;;;;6252252;23;20413;-89
2023/02/16 13:54:23;;;;;;;3.57;3.00;;;21.30;56.60;;;;;;6250832;23;20866;-91
2023/02/16 13:56:50;;;;;;;3.70;2.30;;;21.30;56.70;;;;;;6253321;23;20436;-96
2023/02/16 13:59:57;;;;;;;3.60;2.10;;;21.30;56.60;;;;;;6250842;23;20445;-90
2023/02/16 14:02:54;;;;;;;3.23;3.00;;;21.30;56.70;;;;;;6250610;23;20381;-96
2023/02/16 14:05:29;;;;;;;2.27;2.07;;;21.30;56.70;;;;;;6241571;23;20488;-89
2023/02/16 14:08:21;;;;;;;2.23;2.03;;;21.20;56.70;;;;;;6249623;23;20882;-89
2023/02/16 14:11:02;;;;;;;3.37;2.17;;;21.20;56.70;;;;;;6244464;23;20489;-90
2023/02/16 14:13:33;;;;;;;6.00;2.33;;;21.20;56.70;;;;;;6253234;23;20414;-93
2023/02/16 14:16:06;;;;;;;3.03;2.73;;;21.20;56.70;;;;;;6251068;23;20455;-89
2023/02/16 14:18:41;;;;;;;1.97;1.87;;;21.20;56.70;;;;;;6252794;23;20433;-89
2023/02/16 14:21:18;;;;;;;2.23;2.13;;;21.20;56.70;;;;;;6249195;23;20907;-95
2023/02/16 14:23:53;;;;;;;2.70;2.50;;;21.20;56.70;;;;;;6250212;23;20393;-90
2023/02/16 14:26:20;;;;;;;2.87;2.63;;;21.20;56.70;;;;;;6249863;23;20414;-89
2023/02/16 14:29:00;;;;;;;2.77;2.57;;;21.20;56.70;;;;;;6251098;23;20395;-90
2023/02/16 14:31:28;;;;;;;2.37;2.17;;;21.20;56.70;;;;;;6250997;23;20901;-90
2023/02/16 14:34:03;;;;;;;2.33;2.13;;;21.40;56.90;;;;;;6251006;23;20501;-90
2023/02/16 14:36:30;;;;;;;2.37;2.17;;;21.20;56.80;;;;;;6248574;23;20385;-90
2023/02/16 14:38:59;;;;;;;3.80;2.60;;;21.20;56.80;;;;;;6251360;23;21010;-90
2023/02/16 14:41:32;;;;;;;2.33;2.13;;;21.20;56.80;;;;;;6250416;23;20496;-91
2023/02/16 14:44:23;;;;;;;2.80;2.50;;;21.20;56.80;;;;;;6248640;23;20718;-90
2023/02/16 14:46:58;;;;;;;5.60;2.30;;;21.20;56.80;;;;;;6249996;23;20485;-90
2023/02/16 14:49:54;;;;;;;3.03;2.83;;;21.20;56.80;;;;;;6250496;23;20398;-96
2023/02/16 14:53:14;;;;;;;2.43;2.20;;;21.20;56.90;;;;;;6252567;23;20397;-89
2023/02/16 14:56:20;;;;;;;3.07;2.73;;;21.20;56.80;;;;;;6250222;23;20408;-89
2023/02/16 14:58:54;;;;;;;2.70;2.50;;;21.10;56.80;;;;;;6194229;23;20515;-90
2023/02/16 15:01:22;;;;;;;2.53;2.33;;;21.30;57.00;;;;;;6251927;23;20399;-90
2023/02/16 15:03:51;;;;;;;2.87;2.67;;;21.10;56.80;;;;;;6251349;23;20427;-90
2023/02/16 15:06:27;;;;;;;3.13;2.83;;;21.20;56.80;;;;;;6250564;23;20493;-90
2023/02/16 15:08:57;;;;;;;2.53;2.33;;;21.20;56.80;;;;;;6254154;23;20389;-96
2023/02/16 15:11:31;;;;;;;3.40;2.53;;;21.20;56.70;;;;;;6249052;23;20476;-90
2023/02/16 15:14:07;;;;;;;3.13;2.93;;;21.20;56.70;;;;;;6253170;23;20392;-90
2023/02/16 15:16:38;;;;;;;2.17;2.07;;;21.20;56.70;;;;;;6249461;23;20390;-96
2023/02/16 15:19:10;;;;;;;2.20;2.10;;;21.20;56.70;;;;;;6250851;23;20431;-96
2023/02/16 15:21:39;;;;;;;2.80;2.23;;;21.20;56.70;;;;;;6247701;23;20904;-96
2023/02/16 15:24:06;;;;;;;5.77;2.50;;;21.40;56.80;;;;;;6247619;23;20414;-90
2023/02/16 15:26:37;;;;;;;3.07;2.70;;;21.20;56.70;;;;;;6247031;23;20397;-96
2023/02/16 15:29:21;;;;;;;2.47;2.37;;;21.20;56.70;;;;;;6248076;23;20437;-90
2023/02/16 15:31:48;;;;;;;3.33;2.07;;;21.30;56.70;;;;;;6247518;23;20394;-89
2023/02/16 15:34:27;;;;;;;2.80;2.60;;;21.20;56.70;;;;;;6249202;23;20427;-90
2023/02/16 15:36:56;;;;;;;2.93;2.73;;;21.20;56.70;;;;;;6249306;23;20417;-89
2023/02/16 15:39:29;;;;;;;2.27;2.10;;;21.20;56.70;;;;;;6249549;23;20444;-90
2023/02/16 15:42:15;;;;;;;3.30;2.53;;;21.20;56.70;;;;;;6251982;23;20480;-89
2023/02/16 15:44:43;;;;;;;2.30;2.10;;;21.30;56.80;;;;;;6249972;23;20389;-96
2023/02/16 15:47:12;;;;;;;2.60;2.40;;;21.20;56.70;;;;;;6251261;23;20412;-92
2023/02/16 15:49:39;;;;;;;2.90;2.70;;;21.20;56.80;;;;;;6254316;23;20484;-94
2023/02/16 15:52:12;;;;;;;2.10;1.90;;;21.20;56.70;;;;;;6254206;22;20520;-93
2023/02/16 15:54:47;;;;;;;2.70;2.50;;;21.30;56.80;;;;;;6253000;23;20812;-91
2023/02/16 15:57:20;;;;;;;2.97;2.67;;;21.20;56.80;;;;;;6255543;23;20393;-90
2023/02/16 15:59:49;;;;;;;3.27;2.43;;;21.20;56.80;;;;;;6257627;23;20443;-91
2023/02/16 16:02:19;;;;;;;2.30;2.10;;;21.20;56.80;;;;;;6253481;23;20409;-90
2023/02/16 16:04:53;;;;;;;2.20;2.00;;;21.20;56.80;;;;;;6254802;23;20511;-93
2023/02/16 16:07:26;;;;;;;2.77;2.57;;;21.20;56.80;;;;;;6259333;23;20404;-90
2023/02/16 16:09:54;;;;;;;3.50;2.07;;;21.20;56.80;;;;;;6258603;23;20394;-90
2023/02/16 16:12:21;;;;;;;2.17;2.07;;;21.30;56.90;;;;;;6259389;23;20496;-90
2023/02/16 16:14:51;;;;;;;2.50;2.30;;;21.10;56.80;;;;;;6257153;23;20442;-96
2023/02/16 16:17:22;;;;;;;2.20;2.10;;;21.10;56.80;;;;;;6257399;23;20436;-90
2023/02/16 16:19:50;;;;;;;2.70;2.50;;;21.20;56.90;;;;;;6254821;23;20441;-96
2023/02/16 16:22:33;;;;;;;2.47;2.23;;;21.20;56.90;;;;;;6252215;23;20717;-88
2023/02/16 16:25:00;;;;;;;2.80;2.60;;;21.10;56.80;;;;;;6253373;23;20401;-95
2023/02/16 16:27:34;;;;;;;2.20;2.10;;;21.10;56.80;;;;;;6252195;23;20403;-89
2023/02/16 16:30:27;;;;;;;2.50;2.30;;;21.10;56.80;;;;;;6253575;23;20413;-96
2023/02/16 16:33:04;;;;;;;2.57;2.37;;;21.30;57.00;;;;;;6251300;23;20881;-96
2023/02/16 16:35:37;;;;;;;2.63;2.43;;;21.10;56.90;;;;;;6251047;23;20395;-96
2023/02/16 16:38:09;;;;;;;2.20;2.00;;;21.10;56.90;;;;;;6251472;23;20866;-95
2023/02/16 16:40:37;;;;;;;1.90;1.80;;;21.10;56.90;;;;;;6252998;23;20397;-96
2023/02/16 16:43:16;;;;;;;2.63;2.43;;;21.10;56.90;;;;;;6252846;23;20465;-93
2023/02/16 16:45:44;;;;;;;2.57;2.37;;;21.10;56.90;;;;;;6253675;23;20394;-89
2023/02/16 16:48:18;;;;;;;3.13;2.93;;;21.00;56.90;;;;;;6253320;23;20411;-92
2023/02/16 16:53:41;;;;;;;2.33;2.13;;;21.00;56.90;;;;;;6258300;22;20533;-91
2023/02/16 16:56:10;;;;;;;3.57;2.63;;;21.10;57.00;;;;;;6252956;23;20485;-91
2023/02/16 16:58:37;;;;;;;3.50;2.60;;;21.00;56.90;;;;;;6250803;23;20438;-86
2023/02/16 17:01:04;;;;;;;4.00;2.83;;;21.00;57.00;;;;;;6248627;23;20401;-86
2023/02/16 17:03:31;;;;;;;2.87;2.67;;;21.00;56.80;;;;;;6249395;23;20432;-86
2023/02/16 17:05:58;;;;;;;4.90;2.47;;;21.00;56.80;;;;;;6248621;23;20402;-86
2023/02/16 17:08:25;;;;;;;2.53;2.33;;;21.10;56.90;;;;;;6250091;23;20488;-96
2023/02/16 17:10:53;;;;;;;3.00;2.80;;;21.00;56.80;;;;;;6249630;23;20397;-96
2023/02/16 17:13:21;;;;;;;3.03;2.83;;;21.10;57.00;;;;;;6249576;23;20726;-86
2023/02/16 17:15:52;;;;;;;2.33;2.13;;;21.00;56.90;;;;;;6248874;23;20485;-87
2023/02/16 17:18:21;;;;;;;2.60;2.40;;;21.00;56.90;;;;;;6249065;23;20397;-85
2023/02/16 17:20:49;;;;;;;3.80;2.83;;;21.10;57.00;;;;;;6247915;23;20410;-87
2023/02/16 17:23:18;;;;;;;5.07;2.37;;;21.10;57.00;;;;;;6249156;23;20520;-87
2023/02/16 17:25:45;;;;;;;2.37;2.17;;;21.10;57.00;;;;;;6247572;23;20481;-85
2023/02/16 17:28:16;;;;;;;2.20;2.10;;;21.20;57.10;;;;;;6247594;23;20401;-85
2023/02/16 17:30:43;;;;;;;2.53;2.33;;;21.10;57.00;;;;;;6247474;23;20392;-88
2023/02/16 17:33:10;;;;;;;3.37;3.07;;;21.10;57.10;;;;;;6247504;23;20433;-85
2023/02/16 17:35:40;;;;;;;2.73;2.53;;;21.10;57.10;;;;;;6247546;23;20400;-85
2023/02/16 17:38:08;;;;;;;2.60;2.40;;;21.10;57.20;;;;;;6247167;23;20406;-85
2023/02/16 17:40:34;;;;;;;3.03;2.83;;;21.20;57.20;;;;;;6247452;23;20752;-84
2023/02/16 17:43:01;;;;;;;3.13;2.93;;;21.20;57.20;;;;;;6247352;23;20472;-89
2023/02/16 17:45:29;;;;;;;2.47;2.27;;;21.20;57.20;;;;;;6247448;23;20397;-85
2023/02/16 17:47:56;;;;;;;2.80;2.60;;;21.20;57.20;;;;;;6247163;23;20409;-88
2023/02/16 17:50:24;;;;;;;2.53;2.33;;;21.20;57.30;;;;;;6246994;23;20405;-85
2023/02/16 17:52:55;;;;;;;2.50;2.30;;;21.20;57.30;;;;;;6246848;23;20433;-85
2023/02/16 17:55:23;;;;;;;3.40;3.10;;;21.20;57.30;;;;;;6235572;23;20401;-85
2023/02/16 17:57:49;;;;;;;3.00;2.67;;;21.20;57.20;;;;;;6246705;23;20915;-90
2023/02/16 18:00:21;;;;;;;2.50;2.30;;;21.20;57.30;;;;;;6247538;23;20441;-90
2023/02/16 18:02:49;;;;;;;2.47;2.37;;;21.30;57.40;;;;;;6246886;23;20396;-85
2023/02/16 18:05:16;;;;;;;2.40;2.20;;;21.30;57.40;;;;;;6246946;23;20402;-85
2023/02/16 18:07:43;;;;;;;4.70;2.63;;;21.30;58.10;;;;;;6247119;23;20397;-87
2023/02/16 18:10:18;;;;;;;2.40;2.20;;;21.30;57.50;;;;;;6246725;23;20401;-84
2023/02/16 18:12:45;;;;;;;2.73;2.53;;;21.30;57.40;;;;;;6247204;23;20390;-85
2023/02/16 18:15:11;;;;;;;2.80;2.60;;;21.30;57.50;;;;;;6246953;23;20397;-85
2023/02/16 18:17:38;;;;;;;4.63;2.20;;;21.30;57.50;;;;;;6246287;23;20394;-85
2023/02/16 18:20:08;;;;;;;2.47;2.27;;;21.50;57.70;;;;;;6246926;23;20444;-89
2023/02/16 18:22:35;;;;;;;2.40;2.20;;;21.30;57.50;;;;;;6247324;23;20405;-86
2023/02/16 18:25:03;;;;;;;2.53;2.43;;;21.30;57.70;;;;;;6246742;23;20899;-88
2023/02/16 18:27:30;;;;;;;4.77;4.37;;;21.30;57.70;;;;;;6246311;23;20750;-85
2023/02/16 18:29:57;;;;;;;5.83;5.43;;;21.30;57.50;;;;;;6245962;23;20397;-85
2023/02/16 18:32:24;;;;;;;7.50;7.00;;;21.30;57.60;;;;;;6246624;23;20407;-89
2023/02/16 18:34:51;;;;;;;8.00;7.20;;;21.30;57.60;;;;;;6246426;23;20940;-89
2023/02/16 18:37:19;;;;;;;6.87;6.37;;;21.40;57.90;;;;;;6246031;23;20441;-91
2023/02/16 18:49:19;;;;;;;6.87;6.37;;;21.40;57.90;;;;;;5093146;28;20502;-96
2023/02/16 18:51:46;;;;;;;7.70;7.17;;;21.40;57.90;;;;;;5080426;28;20421;-92
2023/02/16 18:54:13;;;;;;;6.97;6.47;;;21.40;57.90;;;;;;5071421;28;20448;-88
2023/02/16 18:56:40;;;;;;;7.00;6.47;;;21.40;57.80;;;;;;5071882;28;20445;-90
2023/02/16 18:59:06;;;;;;;7.17;6.67;;;21.40;57.80;;;;;;5071848;28;20503;-96
2023/02/16 19:01:33;;;;;;;6.60;6.13;;;21.50;57.80;;;;;;5070414;28;20958;-87
2023/02/16 19:04:01;;;;;;;6.83;6.30;;;21.60;57.80;;;;;;5057417;28;20520;-85
2023/02/16 19:06:30;;;;;;;6.40;5.90;;;21.50;57.90;;;;;;5051051;28;20441;-95
2023/02/16 19:08:58;;;;;;;6.07;5.67;;;21.50;57.90;;;;;;5052511;28;20554;-93
2023/02/16 19:11:26;;;;;;;6.00;5.60;;;21.50;57.80;;;;;;5050373;28;20949;-88
2023/02/16 19:13:53;;;;;;;9.70;6.23;;;21.50;57.90;;;;;;5050460;28;20537;-86
2023/02/16 19:16:20;;;;;;;6.00;5.50;;;21.50;58.00;;;;;;5050766;28;20959;-86
2023/02/16 19:18:47;;;;;;;7.30;6.20;;;21.50;57.90;;;;;;5050303;28;20815;-86
2023/02/16 19:21:14;;;;;;;5.60;5.20;;;21.50;57.90;;;;;;5053478;28;20454;-96
2023/02/16 19:23:43;;;;;;;5.53;5.13;;;21.60;58.00;;;;;;5052976;28;20468;-87
2023/02/16 19:26:12;;;;;;;5.93;5.50;;;21.60;58.00;;;;;;5050843;28;20819;-92
2023/02/16 19:28:39;;;;;;;5.67;5.23;;;21.60;58.00;;;;;;5051533;28;20482;-93
2023/02/16 19:31:09;;;;;;;4.90;4.60;;;21.50;57.90;;;;;;5051678;28;20941;-93
2023/02/16 19:33:36;;;;;;;6.37;5.30;;;21.60;58.00;;;;;;5055057;28;20497;-92
2023/02/16 19:36:04;;;;;;;5.63;5.23;;;21.40;57.90;;;;;;5055418;28;20449;-91
2023/02/16 19:38:31;;;;;;;6.17;5.57;;;21.60;58.10;;;;;;5050161;28;20828;-94
2023/02/16 19:41:00;;;;;;;5.30;4.97;;;21.60;58.10;;;;;;5050052;28;20437;-91
2023/02/16 19:43:27;;;;;;;5.33;4.93;;;21.50;58.00;;;;;;5049889;28;20446;-89
2023/02/16 19:45:54;;;;;;;6.00;5.50;;;21.60;58.00;;;;;;5049922;28;20450;-91
2023/02/16 19:48:20;;;;;;;8.43;6.10;;;21.60;58.10;;;;;;5049309;28;21046;-90
2023/02/16 19:50:47;;;;;;;5.70;5.20;;;21.70;58.20;;;;;;5054133;28;20536;-93
2023/02/16 19:53:18;;;;;;;6.63;6.10;;;21.60;58.20;;;;;;5055645;28;20541;-95
2023/02/16 19:55:44;;;;;;;5.50;5.00;;;21.60;58.10;;;;;;5056621;28;20544;-90
2023/02/16 19:58:13;;;;;;;5.20;4.70;;;21.60;58.10;;;;;;5050279;28;20536;-92
2023/02/16 20:00:40;;;;;;;5.40;5.00;;;21.60;58.30;;;;;;5036208;28;20452;-88
2023/02/16 20:03:08;;;;;;;5.63;5.13;;;21.60;58.30;;;;;;5036179;28;20470;-89
2023/02/16 20:05:35;;;;;;;5.13;4.73;;;21.60;58.30;;;;;;5036297;28;20807;-90
2023/02/16 20:08:02;;;;;;;6.37;5.87;;;21.60;58.10;;;;;;5036246;28;20480;-90
2023/02/16 20:10:31;;;;;;;5.70;5.20;;;21.60;58.90;;;;;;5040196;28;20533;-93
2023/02/16 20:12:58;;;;;;;6.93;4.90;;;21.60;59.00;;;;;;5037430;28;20516;-93
2023/02/16 20:15:27;;;;;;;5.37;4.90;;;21.60;58.40;;;;;;5037131;28;20458;-93
2023/02/16 20:17:54;;;;;;;4.77;4.37;;;21.60;58.40;;;;;;5043064;28;20545;-96
2023/02/16 20:20:23;;;;;;;4.60;4.20;;;21.70;58.50;;;;;;5038732;28;20531;-95
2023/02/16 20:22:51;;;;;;;5.27;4.87;;;21.70;58.50;;;;;;5041127;28;20504;-91
2023/02/16 20:25:18;;;;;;;4.73;4.33;;;21.70;58.50;;;;;;5037184;28;21034;-91
2023/02/16 20:27:45;;;;;;;4.60;4.30;;;21.70;58.60;;;;;;5035651;28;20484;-92
2023/02/16 20:30:17;;;;;;;4.93;4.53;;;21.70;58.60;;;;;;5035748;28;20875;-93
2023/02/16 20:32:46;;;;;;;4.50;4.10;;;21.70;58.60;;;;;;5036055;28;20473;-90
2023/02/16 20:35:31;;;;;;;4.43;4.13;;;21.70;58.50;;;;;;5035772;28;20458;-92
2023/02/16 20:37:58;;;;;;;4.47;4.07;;;21.70;58.60;;;;;;5038799;28;20911;-94
2023/02/16 20:40:25;;;;;;;5.40;4.90;;;21.70;58.70;;;;;;5036010;28;20449;-91
2023/02/16 20:42:52;;;;;;;4.20;3.90;;;21.70;58.70;;;;;;5035890;28;20946;-91
2023/02/16 20:45:20;;;;;;;3.77;3.37;;;21.80;58.80;;;;;;5035599;28;20454;-92
2023/02/16 20:47:49;;;;;;;4.33;3.93;;;21.90;58.80;;;;;;5036016;28;20492;-92
2023/02/16 20:50:15;;;;;;;4.37;3.97;;;21.80;59.00;;;;;;5035690;28;20945;-93
2023/02/16 20:52:42;;;;;;;3.60;3.40;;;21.80;59.00;;;;;;5038459;28;20446;-94
2023/02/16 20:55:10;;;;;;;6.00;3.90;;;21.80;59.00;;;;;;5037137;28;20450;-92
2023/02/16 20:57:37;;;;;;;5.33;4.83;;;21.80;58.90;;;;;;5035608;28;20997;-94
2023/02/16 21:00:11;;;;;;;4.33;4.03;;;21.80;59.00;;;;;;5035452;28;20444;-92
2023/02/16 21:02:39;;;;;;;4.50;4.20;;;21.80;58.90;;;;;;5034965;28;20471;-90